Time;durP1;ratioP1;P1;durP2;ratioP2;P2;SDS_P1;SDS_P2;PMS_P1;PMS_P2;Temp;Humidity;BMP_temperature;BMP_pressure;BME280_temperature;BME280_humidity;BME280_pressure;Samples;Min_cycle;Max_cycle;Signal;HPM_P1;HPM_P2
2022/02/23 04:58:44;;;;;;;;;;;;;;;1.67;89.27;100595.47;4920620;29;19933;-83
2022/02/23 05:01:10;;;;;;;;;;;;;;;1.60;89.14;100603.25;4932655;29;19923;-83
2022/02/23 05:03:35;;;;;;;;;;;;;;;1.38;88.74;100602.22;4934339;29;20283;-83
2022/02/23 05:06:01;;;;;;;;;;;;;;;1.36;88.39;100606.56;4934015;29;19919;-83
2022/02/23 05:08:26;;;;;;;;;;;;;;;1.25;88.05;100614.31;4933990;29;20429;-83
2022/02/23 05:10:52;;;;;;;;;;;;;;;1.38;88.42;100609.19;4933142;29;19919;-83
2022/02/23 05:13:18;;;;;;;;;;;;;;;1.69;89.52;100612.91;4935038;29;20330;-82
2022/02/23 05:15:43;;;;;;;;;;;;;;;2.22;91.12;100616.69;4933044;29;20310;-82
2022/02/23 05:18:08;;;;;;;;;;;;;;;2.52;92.75;100615.03;4931376;29;20033;-82
2022/02/23 05:20:34;;;;;;;;;;;;;;;2.70;93.94;100615.09;4932389;29;19923;-82
2022/02/23 05:23:00;;;;;;;;;;;;;;;2.87;95.38;100619.50;4932825;29;19922;-83
2022/02/23 05:25:25;;;;;;;;;;;;;;;2.87;95.97;100623.00;4933245;29;20282;-83
2022/02/23 05:27:51;;;;;;;;;;;;;;;2.93;96.66;100627.38;4932209;29;20344;-83
2022/02/23 05:30:16;;;;;;;;;;;;;;;2.98;97.46;100630.84;4932785;29;19926;-84
2022/02/23 05:32:42;;;;;;;;;;;;;;;3.17;99.87;100638.75;4931152;29;20289;-83
2022/02/23 05:35:08;;;;;;;;;;;;;;;3.31;100.00;100634.41;4932301;29;20001;-82
2022/02/23 05:37:33;;;;;;;;;;;;;;;3.32;100.00;100646.63;4930833;29;19933;-82
2022/02/23 05:39:58;;;;;;;;;;;;;;;3.31;100.00;100651.88;4938885;29;19923;-82
2022/02/23 05:42:24;;;;;;;;;;;;;;;3.30;100.00;100655.34;4930786;29;19923;-82
2022/02/23 05:44:49;;;;;;;;;;;;;;;3.35;100.00;100664.09;4931952;29;19926;-82
2022/02/23 05:47:14;;;;;;;;;;;;;;;3.31;100.00;100670.22;4932580;29;19950;-82
2022/02/23 05:49:39;;;;;;;;;;;;;;;3.27;100.00;100671.94;4931369;29;19923;-82
2022/02/23 05:52:05;;;;;;;;;;;;;;;3.37;100.00;100671.09;4931646;29;19923;-82
2022/02/23 05:54:33;;;;;;;;;;;;;;;3.32;100.00;100674.56;4930508;29;19923;-81
2022/02/23 05:56:59;;;;;;;;;;;;;;;3.32;100.00;100675.44;4930162;29;19919;-81
2022/02/23 05:59:25;;;;;;;;;;;;;;;3.36;100.00;100677.19;4931287;29;20452;-81
2022/02/23 06:01:50;;;;;;;;;;;;;;;3.30;100.00;100679.78;4929620;29;19929;-81
2022/02/23 08:51:12;;;;;;;;;;;;;;;3.75;79.76;100761.97;5092957;23;20745;-81
2022/02/23 08:53:37;;;;;;;;;;;;;;;3.70;79.93;100761.09;4897117;29;19927;-82
2022/02/23 08:56:03;;;;;;;;;;;;;;;3.81;80.23;100750.59;4901854;29;19924;-81
2022/02/23 08:58:28;;;;;;;;;;;;;;;3.79;80.04;100757.59;4898627;29;19927;-81
2022/02/23 09:00:53;;;;;;;;;;;;;;;5.71;82.49;100752.53;4896153;29;19923;-84
2022/02/23 09:03:22;;;;;;;;;;;;;;;7.13;78.95;100740.56;4898847;29;19999;-85
2022/02/23 09:05:48;;;;;;;;;;;;;;;7.25;82.93;100741.25;4896067;29;20060;-86
2022/02/23 09:08:13;;;;;;;;;;;;;;;7.90;78.81;100739.44;4899515;29;19931;-88
2022/02/23 09:10:39;;;;;;;;;;;;;;;7.39;79.90;100740.22;4902352;29;19927;-90
2022/02/23 09:13:05;;;;;;;;;;;;;;;5.33;81.56;100751.03;4868190;29;19923;-87
2022/02/23 09:15:31;;;;;;;;;;;;;;;4.26;82.43;100745.31;4901330;29;19924;-87
2022/02/23 09:17:56;;;;;;;;;;;;;;;3.77;82.72;100754.09;4899884;29;19978;-86
2022/02/23 09:20:34;;;;;;;;;;;;;;;;;;;;;
2022/02/23 09:23:00;;;;;;;;;;;;;;;3.40;83.66;100749.69;4900888;29;19923;-86
2022/02/23 09:25:25;;;;;;;;;;;;;;;3.27;83.82;100750.50;4898739;29;20359;-86
2022/02/23 09:27:51;;;;;;;;;;;;;;;3.11;83.91;100749.59;4900513;29;20132;-86
2022/02/23 09:30:16;;;;;;;;;;;;;;;3.08;83.95;100750.47;4882489;29;19923;-89
2022/02/23 09:32:42;;;;;;;;;;;;;;;3.06;83.33;100749.63;4881109;29;19941;-87
2022/02/23 09:35:10;;;;;;;;;;;;;;;2.91;83.30;100750.41;4897147;29;20331;-87
2022/02/23 09:37:36;;;;;;;;;;;;;;;2.70;82.44;100756.44;4880535;29;19923;-87
2022/02/23 09:40:05;;;;;;;;;;;;;;;2.62;82.71;100757.28;4899519;29;19978;-87
2022/02/23 09:42:33;;;;;;;;;;;;;;;2.63;82.67;100749.44;4879861;29;20411;-88
2022/02/23 09:44:59;;;;;;;;;;;;;;;2.53;81.87;100752.84;4884440;29;20290;-88
2022/02/23 09:47:25;;;;;;;;;;;;;;;2.55;81.89;100743.25;4898039;29;20406;-88
2022/02/23 09:49:51;;;;;;;;;;;;;;;2.39;81.42;100746.66;4895575;29;19934;-87
2022/02/23 09:52:21;;;;;;;;;;;;;;;2.40;81.50;100751.03;4894619;29;20065;-86
2022/02/23 09:54:46;;;;;;;;;;;;;;;2.46;82.35;100743.25;4901085;29;20294;-88
2022/02/23 09:57:12;;;;;;;;;;;;;;;2.46;82.35;100743.25;4898909;29;19927;-86
2022/02/23 09:59:37;;;;;;;;;;;;;;;2.31;82.10;100739.66;4898064;29;19971;-86
2022/02/23 10:02:03;;;;;;;;;;;;;;;2.33;82.65;100740.53;4897917;29;20302;-86
2022/02/23 10:04:28;;;;;;;;;;;;;;;2.20;81.69;100738.69;4896918;29;19923;-86
2022/02/23 10:06:59;;;;;;;;;;;;;;;2.22;81.56;100737.00;4896558;29;20009;-87
2022/02/23 10:09:24;;;;;;;;;;;;;;;2.08;80.69;100742.13;4896696;29;20391;-87
2022/02/23 10:11:50;;;;;;;;;;;;;;;2.12;80.44;100740.38;4898019;29;19932;-87
2022/02/23 10:14:15;;;;;;;;;;;;;;;2.15;81.16;100737.78;4896891;29;19927;-86
2022/02/23 10:16:42;;;;;;;;;;;;;;;2.61;84.89;100738.06;4894994;29;19942;-86
2022/02/23 10:19:08;;;;;;;;;;;;;;;2.88;88.85;100736.44;4897091;29;19970;-87
2022/02/23 10:21:52;;;;;;;;;;;;;;;2.97;91.28;100735.59;4895816;29;19980;-88
2022/02/23 10:24:19;;;;;;;;;;;;;;;3.11;93.04;100733.03;4898187;29;19919;-86
2022/02/23 10:26:59;;;;;;;;;;;;;;;3.09;94.20;100731.28;4897352;29;19929;-88
2022/02/23 10:29:28;;;;;;;;;;;;;;;3.14;95.00;100733.03;4897058;29;19926;-88
2022/02/23 10:31:53;;;;;;;;;;;;;;;3.19;95.57;100732.19;4898486;29;19986;-88
2022/02/23 10:34:20;;;;;;;;;;;;;;;3.29;96.06;100727.84;4912634;29;19919;-87
2022/02/23 10:36:56;;;;;;;;;;;;;;;3.31;96.29;100738.31;4897744;29;19923;-87
2022/02/23 10:39:21;;;;;;;;;;;;;;;3.30;96.40;100726.94;4897618;29;19923;-87
2022/02/23 10:41:47;;;;;;;;;;;;;;;3.33;96.37;100729.56;4898433;29;19945;-87
2022/02/23 10:44:12;;;;;;;;;;;;;;;3.41;96.19;100733.06;4897798;29;19930;-88
2022/02/23 10:46:37;;;;;;;;;;;;;;;3.44;95.78;100732.22;4893102;29;20108;-87
2022/02/23 10:49:03;;;;;;;;;;;;;;;3.47;95.42;100732.22;4894368;29;20206;-87
2022/02/23 10:51:30;;;;;;;;;;;;;;;3.53;94.95;100729.63;4900110;29;20345;-87
2022/02/23 10:54:05;;;;;;;;;;;;;;;3.59;94.25;100726.09;4897189;29;19939;-87
2022/02/23 10:56:32;;;;;;;;;;;;;;;3.66;93.18;100729.63;4894460;29;20184;-88
2022/02/23 10:59:15;;;;;;;;;;;;;;;3.69;92.30;100724.41;4892882;29;19934;-87
2022/02/23 11:01:44;;;;;;;;;;;;;;;3.74;90.97;100723.50;4894659;29;19919;-87
2022/02/23 11:04:10;;;;;;;;;;;;;;;3.78;89.77;100725.25;4897060;29;19927;-88
2022/02/23 11:06:36;;;;;;;;;;;;;;;3.85;88.78;100726.13;4898449;29;19967;-87
2022/02/23 11:09:03;;;;;;;;;;;;;;;3.87;87.73;100728.75;4881376;29;19923;-88
2022/02/23 11:11:28;;;;;;;;;;;;;;;3.86;86.76;100727.88;4896401;29;19946;-88
2022/02/23 11:13:56;;;;;;;;;;;;;;;3.91;86.07;100720.00;4893937;29;20355;-87
2022/02/23 11:16:22;;;;;;;;;;;;;;;3.92;85.41;100716.50;4896866;29;20361;-88
2022/02/23 11:18:48;;;;;;;;;;;;;;;3.95;84.84;100706.88;4895735;29;19925;-87
2022/02/23 11:21:15;;;;;;;;;;;;;;;4.00;84.53;100710.41;4895770;29;20313;-87
2022/02/23 11:23:41;;;;;;;;;;;;;;;3.98;83.92;100706.03;4880563;29;20414;-87
2022/02/23 11:26:08;;;;;;;;;;;;;;;3.99;83.56;100706.00;4896543;29;19927;-87
2022/02/23 11:28:35;;;;;;;;;;;;;;;3.98;83.12;100700.78;4898034;29;20191;-87
2022/02/23 11:31:05;;;;;;;;;;;;;;;4.01;82.83;100698.16;4877610;29;20010;-87
2022/02/23 11:33:49;;;;;;;;;;;;;;;4.05;82.76;100694.63;4880620;29;20015;-86
2022/02/23 11:36:21;;;;;;;;;;;;;;;4.09;82.58;100696.38;4891703;29;19927;-87
2022/02/23 11:38:48;;;;;;;;;;;;;;;4.10;82.46;100690.28;4894671;29;19946;-86
2022/02/23 11:41:24;;;;;;;;;;;;;;;4.11;82.07;100684.13;4875116;29;19935;-87
2022/02/23 11:43:55;;;;;;;;;;;;;;;4.14;81.72;100681.50;4894101;29;19923;-88
2022/02/23 11:46:20;;;;;;;;;;;;;;;4.16;81.65;100678.88;4879000;29;20010;-88
2022/02/23 11:48:53;;;;;;;;;;;;;;;4.16;81.42;100674.53;4897127;29;20432;-88
2022/02/23 11:51:23;;;;;;;;;;;;;;;4.18;81.43;100666.66;4877803;29;19924;-88
2022/02/23 11:53:48;;;;;;;;;;;;;;;4.23;81.39;100669.22;4895969;29;19923;-87
2022/02/23 11:56:14;;;;;;;;;;;;;;;4.22;81.21;100657.88;4897831;29;19926;-88
2022/02/23 11:58:44;;;;;;;;;;;;;;;4.25;81.05;100662.25;4878074;29;20482;-88
2022/02/23 12:01:09;;;;;;;;;;;;;;;4.22;80.85;100659.63;4895372;29;19924;-87
2022/02/23 12:03:34;;;;;;;;;;;;;;;4.25;80.59;100650.00;4895078;29;19931;-88
2022/02/23 12:06:00;;;;;;;;;;;;;;;4.27;80.46;100655.25;4875289;29;19927;-88
2022/02/23 12:08:31;;;;;;;;;;;;;;;4.27;80.57;100655.25;4892797;29;20006;-87
2022/02/23 12:11:10;;;;;;;;;;;;;;;4.26;80.33;100651.75;4890509;29;20011;-88
2022/02/23 12:13:42;;;;;;;;;;;;;;;4.31;80.48;100646.50;4895754;29;19996;-87
2022/02/23 12:16:18;;;;;;;;;;;;;;;4.33;80.33;100642.09;4894018;29;20410;-87
2022/02/23 12:18:46;;;;;;;;;;;;;;;4.31;80.12;100628.13;4889448;29;19931;-88
2022/02/23 12:21:13;;;;;;;;;;;;;;;4.32;79.85;100629.84;4893169;29;19920;-87
2022/02/23 12:23:38;;;;;;;;;;;;;;;4.35;79.92;100632.47;4893465;29;19993;-87
2022/02/23 12:26:04;;;;;;;;;;;;;;;4.31;79.63;100630.75;4880700;29;20391;-87
2022/02/23 12:28:33;;;;;;;;;;;;;;;4.35;79.64;100622.84;4896447;29;20283;-87
2022/02/23 12:31:12;;;;;;;;;;;;;;;4.35;79.38;100617.59;4896579;29;19924;-87
2022/02/23 12:33:39;;;;;;;;;;;;;;;4.38;79.30;100607.97;4878881;29;19927;-87
2022/02/23 12:36:05;;;;;;;;;;;;;;;4.35;79.09;100601.84;4880850;29;19928;-87
2022/02/23 12:38:32;;;;;;;;;;;;;;;4.38;79.06;100600.09;4875836;29;19931;-87
2022/02/23 12:41:03;;;;;;;;;;;;;;;4.36;78.79;100597.50;4895286;29;19938;-89
2022/02/23 12:43:29;;;;;;;;;;;;;;;4.36;78.66;100587.00;4880448;29;20166;-88
2022/02/23 12:45:58;;;;;;;;;;;;;;;4.39;78.25;100588.72;4878688;29;20363;-87
2022/02/23 12:48:23;;;;;;;;;;;;;;;4.40;78.30;100583.44;4895942;29;20164;-87
2022/02/23 12:50:54;;;;;;;;;;;;;;;4.51;79.35;100576.41;4877567;29;19930;-87
2022/02/23 12:53:19;;;;;;;;;;;;;;;4.58;80.68;100576.38;4878154;29;19931;-87
2022/02/23 12:55:44;;;;;;;;;;;;;;;4.53;82.42;100568.50;4877963;29;19929;-87
2022/02/23 12:58:10;;;;;;;;;;;;;;;4.52;84.02;100565.03;4895545;29;19931;-87
2022/02/23 13:00:35;;;;;;;;;;;;;;;4.50;85.02;100558.94;4895861;29;19923;-87
2022/02/23 13:03:08;;;;;;;;;;;;;;;4.51;86.20;100547.53;4875334;29;19977;-88
2022/02/23 13:05:37;;;;;;;;;;;;;;;4.65;87.42;100544.81;4876087;29;19927;-87
2022/02/23 13:08:06;;;;;;;;;;;;;;;4.76;89.01;100543.91;4887427;29;19930;-86
2022/02/23 13:10:31;;;;;;;;;;;;;;;4.78;91.35;100545.63;4876226;29;19930;-87
2022/02/23 13:12:56;;;;;;;;;;;;;;;4.96;94.16;100539.34;4891488;29;19927;-87
2022/02/23 13:15:22;;;;;;;;;;;;;;;5.21;97.53;100532.13;4888969;29;19927;-87
2022/02/23 13:17:47;;;;;;;;;;;;;;;5.40;100.00;100527.56;4890352;29;20537;-86
2022/02/23 13:20:14;;;;;;;;;;;;;;;5.59;100.00;100527.41;4893579;29;19927;-87
2022/02/23 13:22:43;;;;;;;;;;;;;;;5.70;100.00;100519.41;4877583;29;20197;-87
2022/02/23 13:25:10;;;;;;;;;;;;;;;5.79;100.00;100512.28;4896933;29;19924;-87
2022/02/23 13:27:35;;;;;;;;;;;;;;;5.92;100.00;100515.63;4900738;29;19966;-87
2022/02/23 13:30:03;;;;;;;;;;;;;;;5.94;100.00;100505.94;4883063;29;20045;-87
2022/02/23 13:32:34;;;;;;;;;;;;;;;6.04;100.00;100500.63;4894562;29;19982;-86
2022/02/23 13:35:04;;;;;;;;;;;;;;;6.08;100.00;100500.56;4878139;29;19954;-88
2022/02/23 13:37:36;;;;;;;;;;;;;;;6.16;100.00;100488.16;4895692;29;20360;-87
2022/02/23 13:40:12;;;;;;;;;;;;;;;6.23;100.00;100488.94;4883831;29;19923;-87
2022/02/23 13:42:39;;;;;;;;;;;;;;;6.32;100.00;100488.81;4897362;29;20097;-87
2022/02/23 13:45:10;;;;;;;;;;;;;;;6.35;100.00;100485.25;4898361;29;20347;-87
2022/02/23 13:47:36;;;;;;;;;;;;;;;6.36;100.00;100476.47;4878666;29;20391;-87
2022/02/23 13:50:09;;;;;;;;;;;;;;;6.39;100.00;100475.56;4878454;29;20364;-87
2022/02/23 13:52:41;;;;;;;;;;;;;;;6.46;100.00;100450.88;4897101;29;19923;-87
2022/02/23 13:55:07;;;;;;;;;;;;;;;6.51;100.00;100462.19;4897482;29;20293;-87
2022/02/23 13:57:37;;;;;;;;;;;;;;;6.51;100.00;100451.66;4895293;29;20026;-87
2022/02/23 14:00:07;;;;;;;;;;;;;;;6.56;100.00;100447.22;4894796;29;20029;-88
2022/02/23 14:02:34;;;;;;;;;;;;;;;6.59;100.00;100447.19;4897692;29;20385;-87
2022/02/23 14:05:11;;;;;;;;;;;;;;;6.60;100.00;100456.81;4894898;29;19945;-87
2022/02/23 14:07:36;;;;;;;;;;;;;;;6.65;100.00;100448.84;4877800;29;19923;-88
2022/02/23 14:10:03;;;;;;;;;;;;;;;6.64;100.00;100447.13;4896247;29;20499;-87
2022/02/23 14:12:30;;;;;;;;;;;;;;;6.69;100.00;100440.84;4893997;29;19931;-87
2022/02/23 14:14:56;;;;;;;;;;;;;;;6.75;100.00;100428.47;4893330;29;19926;-88
2022/02/23 14:17:24;;;;;;;;;;;;;;;6.77;100.00;100421.44;4880059;29;20784;-88
2022/02/23 14:19:51;;;;;;;;;;;;;;;6.83;100.00;100426.56;4876740;29;20281;-88
2022/02/23 14:22:19;;;;;;;;;;;;;;;6.83;100.00;100427.47;4897482;29;19983;-88
2022/02/23 14:24:54;;;;;;;;;;;;;;;6.86;100.00;100419.50;4894970;29;20006;-87
2022/02/23 14:27:20;;;;;;;;;;;;;;;6.13;100.00;100416.31;4878729;29;20398;-87
2022/02/23 14:29:49;;;;;;;;;;;;;;;4.77;100.00;100416.97;4895603;29;20370;-87
2022/02/23 14:32:18;;;;;;;;;;;;;;;4.06;100.00;100410.50;4894652;29;19927;-87
2022/02/23 14:34:51;;;;;;;;;;;;;;;4.00;96.97;100400.06;4892016;29;19927;-87
2022/02/23 14:37:19;;;;;;;;;;;;;;;3.81;94.27;100408.03;4892044;29;20283;-87
2022/02/23 14:39:45;;;;;;;;;;;;;;;3.64;92.60;100408.09;4893923;29;19923;-88
2022/02/23 14:42:10;;;;;;;;;;;;;;;3.50;91.75;100403.81;4893354;29;19949;-87
2022/02/23 14:44:35;;;;;;;;;;;;;;;3.45;91.05;100396.84;4875028;29;20261;-89
2022/02/23 14:47:00;;;;;;;;;;;;;;;3.38;90.25;100397.75;4892215;29;20157;-87
2022/02/23 14:49:26;;;;;;;;;;;;;;;3.23;89.72;100388.19;4892720;29;20299;-88
2022/02/23 14:51:51;;;;;;;;;;;;;;;3.11;89.51;100392.56;4894242;29;19927;-87
2022/02/23 14:54:16;;;;;;;;;;;;;;;3.06;89.01;100388.25;4876589;29;20414;-87
2022/02/23 14:56:42;;;;;;;;;;;;;;;3.01;88.11;100389.97;4878972;29;20205;-88
2022/02/23 14:59:07;;;;;;;;;;;;;;;3.06;87.61;100397.81;4874484;29;19923;-88
2022/02/23 15:01:33;;;;;;;;;;;;;;;3.00;87.10;100393.50;4873706;29;20276;-87
2022/02/23 15:03:58;;;;;;;;;;;;;;;2.88;86.01;100399.59;4893931;29;19923;-88
2022/02/23 15:06:23;;;;;;;;;;;;;;;2.91;85.88;100398.75;4889866;29;20405;-86
2022/02/23 15:08:49;;;;;;;;;;;;;;;2.72;85.88;100388.28;4892910;29;19923;-87
2022/02/23 15:11:15;;;;;;;;;;;;;;;2.57;85.72;100388.31;4890769;29;20018;-86
2022/02/23 15:13:40;;;;;;;;;;;;;;;2.62;85.51;100383.94;4893262;29;20002;-87
2022/02/23 15:16:08;;;;;;;;;;;;;;;2.67;85.04;100374.34;4896170;29;20228;-87
2022/02/23 15:18:34;;;;;;;;;;;;;;;2.51;84.93;100378.72;4895962;29;19919;-88
2022/02/23 15:21:00;;;;;;;;;;;;;;;2.47;84.88;100368.25;4894060;29;20465;-87
2022/02/23 15:23:25;;;;;;;;;;;;;;;2.50;84.92;100366.50;4895868;29;19916;-87
2022/02/23 15:25:51;;;;;;;;;;;;;;;2.49;84.46;100364.78;4890587;29;19931;-87
2022/02/23 15:28:17;;;;;;;;;;;;;;;2.32;84.21;100367.38;4877783;29;20049;-87
2022/02/23 15:30:43;;;;;;;;;;;;;;;2.26;84.28;100364.75;4892276;29;20371;-87
2022/02/23 15:33:10;;;;;;;;;;;;;;;2.29;84.66;100362.16;4892834;29;19974;-88
2022/02/23 15:35:36;;;;;;;;;;;;;;;2.26;84.47;100362.16;4874566;29;19923;-87
2022/02/23 15:38:01;;;;;;;;;;;;;;;2.20;84.32;100354.28;4876954;29;20295;-87
2022/02/23 15:40:27;;;;;;;;;;;;;;;2.05;84.59;100357.78;4891926;29;19919;-87
2022/02/23 15:42:52;;;;;;;;;;;;;;;2.08;84.44;100362.16;4873135;29;20462;-88
2022/02/23 15:45:18;;;;;;;;;;;;;;;2.06;83.96;100348.19;4874838;29;19928;-88
2022/02/23 15:47:43;;;;;;;;;;;;;;;1.95;83.63;100346.44;4891287;29;20363;-87
2022/02/23 15:50:16;;;;;;;;;;;;;;;2.05;83.57;100346.47;4891925;29;20504;-87
2022/02/23 15:52:42;;;;;;;;;;;;;;;2.10;83.12;100344.72;4892063;29;19923;-87
2022/02/23 15:55:09;;;;;;;;;;;;;;;2.06;82.87;100340.34;4877321;29;19967;-88
2022/02/23 15:57:35;;;;;;;;;;;;;;;1.98;83.70;100337.75;4889027;29;20058;-90
2022/02/23 16:00:01;;;;;;;;;;;;;;;1.90;83.24;100332.50;4874478;29;20253;-90
2022/02/23 16:02:26;;;;;;;;;;;;;;;1.90;83.34;100332.50;4890693;29;20124;-87
2022/02/23 16:04:59;;;;;;;;;;;;;;;1.98;83.00;100330.78;4889580;29;19974;-89
2022/02/23 16:07:24;;;;;;;;;;;;;;;1.84;82.75;100327.28;4875558;29;19924;-89
2022/02/23 16:09:59;;;;;;;;;;;;;;;1.77;83.43;100322.88;4891382;29;19933;-87
2022/02/23 16:12:25;;;;;;;;;;;;;;;1.84;83.02;100316.81;4874918;29;19923;-89
2022/02/23 16:14:52;;;;;;;;;;;;;;;1.78;83.45;100311.56;4877777;29;19938;-90
2022/02/23 16:17:20;;;;;;;;;;;;;;;1.65;83.40;100304.59;4891005;29;20022;-89
2022/02/23 16:19:46;;;;;;;;;;;;;;;1.67;83.34;100297.63;4890284;29;19923;-87
2022/02/23 16:22:12;;;;;;;;;;;;;;;1.63;83.63;100297.63;4893718;29;19935;-88
2022/02/23 16:24:38;;;;;;;;;;;;;;;1.67;83.25;100295.00;4874422;29;19916;-89
2022/02/23 16:27:06;;;;;;;;;;;;;;;1.66;82.90;100293.25;4871598;29;19931;-85
2022/02/23 16:29:34;;;;;;;;;;;;;;;1.54;83.16;100287.16;4883034;29;19923;-88
2022/02/23 16:32:00;;;;;;;;;;;;;;;1.65;82.75;100294.16;4876138;29;20013;-86
2022/02/23 16:34:28;;;;;;;;;;;;;;;1.51;82.83;100292.38;4892314;29;19960;-89
2022/02/23 16:36:53;;;;;;;;;;;;;;;1.58;83.10;100291.53;4880297;29;19932;-88
2022/02/23 16:39:19;;;;;;;;;;;;;;;1.74;83.91;100292.41;4876703;29;20035;-86
2022/02/23 16:41:44;;;;;;;;;;;;;;;2.08;85.80;100286.34;4894202;29;19929;-86
2022/02/23 16:44:10;;;;;;;;;;;;;;;2.12;87.58;100277.59;4876940;29;19969;-86
2022/02/23 16:46:37;;;;;;;;;;;;;;;2.11;91.33;100273.28;4877261;29;20523;-88
2022/02/23 16:49:04;;;;;;;;;;;;;;;2.33;94.04;100274.97;4896265;29;20372;-88
2022/02/23 16:51:29;;;;;;;;;;;;;;;2.39;95.90;100273.22;4881539;29;19939;-86
2022/02/23 16:54:07;;;;;;;;;;;;;;;2.46;97.11;100280.19;4890582;29;20660;-89
2022/02/23 16:56:32;;;;;;;;;;;;;;;2.51;98.28;100275.81;4909396;29;19929;-87
2022/02/23 16:58:58;;;;;;;;;;;;;;;2.61;99.05;100282.75;4910272;29;19920;-87
2022/02/23 17:01:23;;;;;;;;;;;;;;;2.64;99.25;100280.16;4891590;29;19978;-90
2022/02/23 17:03:49;;;;;;;;;;;;;;;2.67;99.26;100274.03;4894634;29;20319;-88
2022/02/23 17:06:14;;;;;;;;;;;;;;;2.64;99.68;100269.69;4893229;29;20018;-86
2022/02/23 17:08:39;;;;;;;;;;;;;;;2.72;100.00;100262.66;4894917;29;19983;-86
2022/02/23 17:11:05;;;;;;;;;;;;;;;2.72;100.00;100257.44;4894028;29;19924;-88
2022/02/23 17:13:31;;;;;;;;;;;;;;;2.69;100.00;100257.44;4892034;29;19928;-87
2022/02/23 17:15:56;;;;;;;;;;;;;;;2.80;100.00;100259.16;4890599;29;20420;-86
2022/02/23 17:18:24;;;;;;;;;;;;;;;2.87;100.00;100251.28;4894763;29;19923;-89
2022/02/23 17:20:51;;;;;;;;;;;;;;;2.78;100.00;100248.72;4890095;29;19923;-87
2022/02/23 17:23:17;;;;;;;;;;;;;;;2.90;100.00;100248.66;4893089;29;19931;-87
2022/02/23 17:25:43;;;;;;;;;;;;;;;2.88;100.00;100249.53;4896009;29;20533;-87
2022/02/23 17:28:11;;;;;;;;;;;;;;;2.89;100.00;100251.28;4909613;29;19955;-87
2022/02/23 17:30:36;;;;;;;;;;;;;;;2.91;100.00;100249.53;4891474;29;19974;-85
2022/02/23 17:33:06;;;;;;;;;;;;;;;2.92;99.92;100243.44;4893143;29;20218;-89
2022/02/23 17:35:34;;;;;;;;;;;;;;;2.95;99.97;100238.16;4891624;29;20314;-87
2022/02/23 17:38:03;;;;;;;;;;;;;;;2.99;99.67;100239.03;4892634;29;20608;-89
2022/02/23 17:40:28;;;;;;;;;;;;;;;2.99;99.58;100225.94;4894632;29;19927;-90
2022/02/23 17:42:59;;;;;;;;;;;;;;;3.01;99.34;100219.78;4895047;29;19919;-87
2022/02/23 17:45:26;;;;;;;;;;;;;;;3.00;99.11;100220.69;4894126;29;19923;-88
2022/02/23 17:47:51;;;;;;;;;;;;;;;3.02;98.65;100218.94;4893723;29;20584;-89
2022/02/23 17:50:16;;;;;;;;;;;;;;;3.04;98.48;100217.16;4894306;29;19923;-89
2022/02/23 17:52:42;;;;;;;;;;;;;;;3.06;98.19;100215.44;4894390;29;20296;-88
2022/02/23 17:55:10;;;;;;;;;;;;;;;3.09;97.81;100218.03;4898947;29;20017;-89
2022/02/23 17:57:36;;;;;;;;;;;;;;;3.16;97.40;100215.34;4881439;29;20558;-88
2022/02/23 18:00:02;;;;;;;;;;;;;;;3.17;96.94;100210.09;4877427;29;19927;-88
2022/02/23 18:02:29;;;;;;;;;;;;;;;3.19;96.43;100218.84;4879636;29;20056;-90
2022/02/23 18:04:54;;;;;;;;;;;;;;;3.22;96.00;100207.47;4876807;29;20010;-89
2022/02/23 18:07:19;;;;;;;;;;;;;;;3.26;95.37;100211.81;4887616;29;20009;-89
2022/02/23 18:09:45;;;;;;;;;;;;;;;3.27;94.70;100198.72;4868389;29;19927;-88
2022/02/23 18:12:10;;;;;;;;;;;;;;;3.31;94.06;100196.06;4869783;29;20379;-88
2022/02/23 18:14:35;;;;;;;;;;;;;;;3.32;93.29;100198.69;4869079;29;20476;-85
2022/02/23 18:17:04;;;;;;;;;;;;;;;3.36;92.48;100199.53;4872043;29;19934;-88
2022/02/23 18:19:30;;;;;;;;;;;;;;;3.39;91.69;100192.50;4868076;29;19928;-87
2022/02/23 18:21:55;;;;;;;;;;;;;;;3.38;90.81;100196.03;4872154;29;20513;-86
2022/02/23 18:24:20;;;;;;;;;;;;;;;3.42;89.91;100187.25;4865988;29;19935;-86
2022/02/23 18:26:47;;;;;;;;;;;;;;;3.40;89.24;100183.78;4869528;29;19930;-86
2022/02/23 18:29:15;;;;;;;;;;;;;;;3.44;88.29;100185.47;4867998;29;19927;-87
2022/02/23 18:31:41;;;;;;;;;;;;;;;3.46;87.54;100188.09;4879724;29;19928;-86
2022/02/23 18:34:06;;;;;;;;;;;;;;;3.45;86.68;100179.38;4885818;29;20375;-87
2022/02/23 18:36:32;;;;;;;;;;;;;;;3.51;86.04;100180.19;4866209;29;20391;-86
2022/02/23 18:38:57;;;;;;;;;;;;;;;3.56;85.68;100181.91;4885160;29;20450;-88
2022/02/23 18:41:22;;;;;;;;;;;;;;;3.53;85.01;100178.47;4870652;29;19934;-86
2022/02/23 18:43:48;;;;;;;;;;;;;;;3.57;84.32;100185.41;4886947;29;20012;-86
2022/02/23 18:46:13;;;;;;;;;;;;;;;3.56;83.86;100188.91;4870070;29;19928;-86
2022/02/23 18:48:38;;;;;;;;;;;;;;;3.58;83.39;100181.91;4868049;29;20622;-87
2022/02/23 18:51:04;;;;;;;;;;;;;;;3.58;82.94;100184.53;4865727;29;19932;-86
2022/02/23 18:53:29;;;;;;;;;;;;;;;3.54;82.51;100180.19;4867259;29;19930;-88
2022/02/23 18:55:54;;;;;;;;;;;;;;;3.56;81.91;100178.44;4867066;29;19938;-86
2022/02/23 18:58:20;;;;;;;;;;;;;;;3.55;81.79;100180.16;4867953;29;20010;-86
2022/02/23 19:00:45;;;;;;;;;;;;;;;3.60;81.52;100180.13;4868260;29;19928;-87
2022/02/23 19:03:11;;;;;;;;;;;;;;;3.60;81.04;100188.84;4884211;29;19923;-86
2022/02/23 19:05:36;;;;;;;;;;;;;;;3.62;80.77;100187.13;4866071;29;19935;-87
2022/02/23 19:08:01;;;;;;;;;;;;;;;3.62;80.44;100186.22;4869470;29;19927;-88
2022/02/23 19:10:26;;;;;;;;;;;;;;;3.64;80.23;100187.09;4864915;29;20331;-88
2022/02/23 19:12:52;;;;;;;;;;;;;;;3.63;79.93;100186.22;4867165;29;20160;-87
2022/02/23 19:15:17;;;;;;;;;;;;;;;3.62;79.69;100188.84;4884004;29;20150;-86
2022/02/23 19:17:43;;;;;;;;;;;;;;;3.65;79.48;100188.81;4869322;29;19934;-87
2022/02/23 19:20:09;;;;;;;;;;;;;;;3.70;79.15;100187.06;4868512;29;19932;-87
2022/02/23 19:22:34;;;;;;;;;;;;;;;3.72;79.15;100184.38;4886771;29;19929;-87
2022/02/23 19:25:00;;;;;;;;;;;;;;;3.74;79.03;100180.03;4867108;29;19971;-88
2022/02/23 19:27:25;;;;;;;;;;;;;;;3.74;78.90;100178.25;4869294;29;20372;-87
2022/02/23 19:29:50;;;;;;;;;;;;;;;3.76;78.62;100184.34;4869332;29;19934;-89
2022/02/23 19:32:16;;;;;;;;;;;;;;;3.76;78.50;100175.63;4868054;29;20022;-87
2022/02/23 19:34:42;;;;;;;;;;;;;;;3.77;78.40;100175.63;4867770;29;20383;-87
2022/02/23 19:37:08;;;;;;;;;;;;;;;3.81;78.15;100171.22;4884053;29;19988;-88
2022/02/23 19:39:33;;;;;;;;;;;;;;;3.78;77.98;100172.13;4883787;29;19923;-87
2022/02/23 19:42:01;;;;;;;;;;;;;;;3.81;77.86;100166.84;4867102;29;19933;-89
2022/02/23 19:44:26;;;;;;;;;;;;;;;3.84;77.45;100170.31;4885810;29;19979;-88
2022/02/23 19:46:51;;;;;;;;;;;;;;;3.85;77.50;100166.84;4885711;29;20352;-88
2022/02/23 19:49:17;;;;;;;;;;;;;;;3.87;77.26;100157.19;4886504;29;20529;-88
2022/02/23 19:51:42;;;;;;;;;;;;;;;3.88;77.04;100153.66;4867384;29;19927;-87
2022/02/23 19:54:10;;;;;;;;;;;;;;;3.86;76.79;100169.44;4888716;29;19954;-88
2022/02/23 19:56:35;;;;;;;;;;;;;;;3.89;76.54;100171.16;4868463;29;19935;-88
2022/02/23 19:59:00;;;;;;;;;;;;;;;3.91;76.51;100172.00;4869248;29;19931;-87
2022/02/23 20:01:26;;;;;;;;;;;;;;;3.94;76.33;100162.38;4869977;29;19931;-87
2022/02/23 20:03:51;;;;;;;;;;;;;;;3.91;76.04;100157.16;4885163;29;19924;-88
2022/02/23 20:06:17;;;;;;;;;;;;;;;4.07;76.27;100157.88;4885027;29;19934;-81
2022/02/23 20:08:46;;;;;;;;;;;;;;;4.84;79.08;100158.72;4882827;29;19931;-85
2022/02/23 20:11:14;;;;;;;;;;;;;;;4.34;78.89;100147.94;4886327;29;20006;-86
2022/02/23 20:13:40;;;;;;;;;;;;;;;4.23;78.51;100145.44;4886631;29;20483;-83
2022/02/23 20:16:05;;;;;;;;;;;;;;;4.17;77.89;100143.75;4882683;29;20002;-83
2022/02/23 20:18:30;;;;;;;;;;;;;;;4.14;77.38;100124.56;4866143;29;19927;-82
2022/02/23 20:20:56;;;;;;;;;;;;;;;4.09;76.79;100132.47;4884572;29;20414;-86
2022/02/23 20:23:21;;;;;;;;;;;;;;;4.10;76.56;100128.97;4868201;29;19930;-88
2022/02/23 20:25:46;;;;;;;;;;;;;;;4.10;76.30;100134.22;4887218;29;19924;-83
2022/02/23 20:28:12;;;;;;;;;;;;;;;4.12;76.08;100127.22;4886726;29;19961;-83